Time;durP1;ratioP1;P1;durP2;ratioP2;P2;SDS_P1;SDS_P2;PMS_P1;PMS_P2;Temp;Humidity;BMP_temperature;BMP_pressure;BME280_temperature;BME280_humidity;BME280_pressure;Samples;Min_cycle;Max_cycle;Signal;HPM_P1;HPM_P2
2021/11/28 00:00:45;;;;;;;25.10;10.23;;;2.90;99.90;;;;;;4995214;28;20034;-61
2021/11/28 00:03:16;;;;;;;22.33;10.45;;;2.90;99.90;;;;;;5010685;28;20038;-61
2021/11/28 00:05:47;;;;;;;25.65;10.10;;;3.00;99.90;;;;;;5012074;28;20026;-59
2021/11/28 00:10:50;;;;;;;23.70;10.93;;;2.90;99.90;;;;;;5017429;28;20026;-60
2021/11/28 00:13:32;;;;;;;30.45;9.40;;;2.90;99.90;;;;;;5011874;28;20184;-61
2021/11/28 00:16:00;;;;;;;25.85;12.23;;;2.90;99.90;;;;;;5011964;28;20030;-61
2021/11/28 00:18:27;;;;;;;26.90;10.27;;;2.80;99.90;;;;;;5012120;28;20029;-61
2021/11/28 00:20:53;;;;;;;26.42;10.13;;;2.80;99.90;;;;;;5012026;28;20033;-60
2021/11/28 00:23:18;;;;;;;20.83;10.77;;;2.80;99.90;;;;;;5011700;28;20030;-59
2021/11/28 00:25:44;;;;;;;24.35;10.38;;;2.80;99.90;;;;;;5014055;28;20407;-60
2021/11/28 00:28:12;;;;;;;21.65;9.88;;;2.80;99.90;;;;;;5011910;28;20069;-60
2021/11/28 00:30:39;;;;;;;28.42;10.73;;;2.70;99.90;;;;;;5011427;28;20100;-60
2021/11/28 00:33:05;;;;;;;32.78;10.57;;;2.70;99.90;;;;;;5011892;28;20022;-60
2021/11/28 00:35:31;;;;;;;28.42;11.18;;;2.70;99.90;;;;;;5013165;28;20029;-59
2021/11/28 00:37:56;;;;;;;22.75;11.10;;;2.60;99.90;;;;;;5018114;28;20029;-59
2021/11/28 00:40:22;;;;;;;24.05;10.48;;;2.60;99.90;;;;;;5014016;28;20018;-60
2021/11/28 00:42:48;;;;;;;25.63;11.55;;;2.60;99.90;;;;;;5015748;28;20030;-60
2021/11/28 00:45:13;;;;;;;22.20;10.68;;;2.60;99.90;;;;;;5013846;28;20029;-61
2021/11/28 00:47:39;;;;;;;24.13;11.00;;;2.60;99.90;;;;;;5010162;28;20415;-61
2021/11/28 00:50:07;;;;;;;24.52;11.65;;;2.60;99.90;;;;;;5010655;28;20034;-61
2021/11/28 00:52:34;;;;;;;30.83;11.90;;;2.60;99.90;;;;;;5011396;28;20028;-61
2021/11/28 00:55:01;;;;;;;25.67;10.65;;;2.60;99.90;;;;;;5011526;28;20511;-61
2021/11/28 00:57:27;;;;;;;19.25;11.05;;;2.60;99.90;;;;;;5010592;28;20041;-61
2021/11/28 00:59:54;;;;;;;27.63;11.52;;;2.60;99.90;;;;;;5013491;28;20479;-61
2021/11/28 01:02:20;;;;;;;22.15;10.60;;;2.60;99.90;;;;;;5014862;28;20144;-59
2021/11/28 01:04:46;;;;;;;19.08;9.70;;;2.60;99.90;;;;;;5012161;28;20022;-59
2021/11/28 01:07:12;;;;;;;23.15;9.75;;;2.60;99.90;;;;;;4996606;28;20046;-60
2021/11/28 01:09:38;;;;;;;27.75;11.00;;;2.60;99.90;;;;;;5011522;28;20022;-61
2021/11/28 01:12:06;;;;;;;22.38;10.38;;;2.60;99.90;;;;;;5015962;28;20038;-60
2021/11/28 01:14:32;;;;;;;23.00;11.18;;;2.60;99.90;;;;;;5012725;28;20033;-61
2021/11/28 01:16:58;;;;;;;26.70;11.75;;;2.50;99.90;;;;;;5016677;28;20483;-61
2021/11/28 01:19:24;;;;;;;20.55;12.10;;;2.50;99.90;;;;;;5010749;28;20061;-61
2021/11/28 01:21:52;;;;;;;21.65;10.77;;;2.50;99.90;;;;;;5010454;28;20101;-61
2021/11/28 01:24:18;;;;;;;16.73;9.48;;;2.50;99.90;;;;;;4989433;28;20117;-61
2021/11/28 01:26:43;;;;;;;22.98;10.02;;;2.60;99.90;;;;;;5014469;28;20136;-61
2021/11/28 01:29:09;;;;;;;20.25;10.75;;;2.60;99.90;;;;;;5009660;28;20075;-61
2021/11/28 01:31:34;;;;;;;19.38;10.07;;;2.60;99.90;;;;;;5010811;28;20034;-61
2021/11/28 01:34:00;;;;;;;22.77;10.18;;;2.70;99.90;;;;;;5013559;28;20042;-61
2021/11/28 01:36:26;;;;;;;22.95;9.77;;;2.70;99.90;;;;;;5014622;28;20100;-61
2021/11/28 01:38:51;;;;;;;19.15;8.93;;;2.80;99.90;;;;;;5010212;28;20030;-61
2021/11/28 01:41:17;;;;;;;25.80;10.10;;;2.80;99.90;;;;;;5016088;28;20033;-61
2021/11/28 01:43:44;;;;;;;17.02;10.15;;;2.80;99.90;;;;;;5003123;28;20038;-59
2021/11/28 01:46:10;;;;;;;22.42;10.45;;;2.80;99.90;;;;;;5012294;28;20040;-60
2021/11/28 01:48:36;;;;;;;23.83;11.27;;;2.80;99.90;;;;;;5011106;28;20030;-60
2021/11/28 01:51:02;;;;;;;22.50;10.68;;;2.70;99.90;;;;;;5012194;28;20030;-61
2021/11/28 01:53:28;;;;;;;24.73;9.85;;;2.70;99.90;;;;;;5011347;28;20062;-60
2021/11/28 01:55:55;;;;;;;21.17;10.23;;;2.80;99.90;;;;;;5015596;28;20022;-59
2021/11/28 01:58:22;;;;;;;28.67;11.18;;;2.80;99.90;;;;;;5014487;28;20029;-58
2021/11/28 02:00:51;;;;;;;25.60;10.20;;;2.80;99.90;;;;;;5011837;28;20395;-60
2021/11/28 02:03:18;;;;;;;27.38;10.43;;;2.80;99.90;;;;;;5010427;28;20092;-61
2021/11/28 02:05:48;;;;;;;21.85;9.52;;;2.90;99.90;;;;;;5009682;28;20484;-61
2021/11/28 02:08:13;;;;;;;20.05;10.02;;;2.90;99.90;;;;;;5010931;28;20115;-61
2021/11/28 02:10:40;;;;;;;22.73;10.57;;;2.90;99.90;;;;;;5015744;28;20492;-61
2021/11/28 02:13:05;;;;;;;20.63;9.98;;;2.90;99.90;;;;;;5013187;28;20502;-61
2021/11/28 02:15:32;;;;;;;24.90;10.35;;;2.80;99.90;;;;;;5013575;28;20034;-61
2021/11/28 02:17:58;;;;;;;19.25;10.57;;;2.80;99.90;;;;;;5013880;28;20036;-61
2021/11/28 02:20:29;;;;;;;26.25;10.80;;;2.80;99.90;;;;;;5017697;28;20033;-61
2021/11/28 02:22:56;;;;;;;23.55;10.20;;;2.70;99.90;;;;;;4999120;28;20447;-61
2021/11/28 02:25:24;;;;;;;25.45;9.48;;;2.60;99.90;;;;;;5019666;28;20391;-61
2021/11/28 02:27:51;;;;;;;23.35;10.65;;;2.60;99.90;;;;;;5013326;28;20124;-61
2021/11/28 02:30:17;;;;;;;20.40;9.98;;;2.60;99.90;;;;;;5016376;28;20030;-60
2021/11/28 02:32:44;;;;;;;20.10;9.45;;;2.60;99.90;;;;;;4996270;28;20466;-61
2021/11/28 02:35:14;;;;;;;23.42;10.57;;;2.60;99.90;;;;;;5016492;28;20080;-59
2021/11/28 02:37:43;;;;;;;19.85;10.65;;;2.50;99.90;;;;;;5018126;28;20076;-61
2021/11/28 02:40:14;;;;;;;18.70;10.48;;;2.50;99.90;;;;;;5013802;28;20026;-60
2021/11/28 02:42:41;;;;;;;20.52;10.60;;;2.50;99.90;;;;;;5019359;28;20515;-61
2021/11/28 02:45:10;;;;;;;22.73;10.95;;;2.50;99.90;;;;;;5013903;28;20033;-61
2021/11/28 02:47:36;;;;;;;23.42;10.75;;;2.50;99.90;;;;;;5012595;28;20022;-61
2021/11/28 02:50:03;;;;;;;24.52;10.40;;;2.50;99.90;;;;;;5014679;28;20084;-61
2021/11/28 02:52:28;;;;;;;28.15;13.52;;;2.50;99.90;;;;;;5012939;28;20506;-60
2021/11/28 02:54:54;;;;;;;34.03;11.43;;;2.50;99.90;;;;;;5012678;28;20061;-61
2021/11/28 02:57:20;;;;;;;23.30;10.38;;;2.50;99.90;;;;;;5016698;28;20025;-61
2021/11/28 02:59:45;;;;;;;27.33;11.98;;;2.60;99.90;;;;;;5013723;28;20034;-60
2021/11/28 03:02:11;;;;;;;23.02;11.18;;;2.60;99.90;;;;;;5020215;28;20033;-59
2021/11/28 03:04:37;;;;;;;22.63;10.95;;;2.60;99.90;;;;;;5012695;28;20038;-60
2021/11/28 03:07:03;;;;;;;21.05;10.55;;;2.70;99.90;;;;;;5012452;28;20104;-61
2021/11/28 03:09:29;;;;;;;23.27;9.75;;;2.80;99.90;;;;;;5013288;28;20034;-61
2021/11/28 03:11:55;;;;;;;19.60;9.05;;;2.80;99.90;;;;;;5016097;28;20032;-61
2021/11/28 03:14:20;;;;;;;19.02;9.88;;;2.90;99.90;;;;;;5013957;22;20046;-67
2021/11/28 03:16:46;;;;;;;20.52;9.43;;;2.90;99.90;;;;;;4992987;28;20029;-65
2021/11/28 03:19:12;;;;;;;23.33;9.70;;;2.80;99.90;;;;;;4988941;28;20057;-65
2021/11/28 03:21:38;;;;;;;22.23;9.77;;;2.80;99.90;;;;;;4987752;28;20105;-66
2021/11/28 03:24:05;;;;;;;25.40;9.05;;;2.80;99.90;;;;;;4992084;28;20031;-66
2021/11/28 03:26:37;;;;;;;21.13;9.75;;;2.80;99.90;;;;;;4992242;28;20523;-64
2021/11/28 03:29:06;;;;;;;17.77;9.20;;;2.70;99.90;;;;;;4990984;28;20066;-66
2021/11/28 03:31:35;;;;;;;19.40;8.95;;;2.80;99.90;;;;;;4989063;28;20146;-65
2021/11/28 03:34:01;;;;;;;20.30;9.95;;;2.80;99.90;;;;;;4993333;28;20101;-62
2021/11/28 03:36:29;;;;;;;17.15;8.68;;;2.90;99.90;;;;;;4992892;28;20030;-64
2021/11/28 03:38:56;;;;;;;15.77;7.70;;;3.00;99.90;;;;;;4991579;28;20404;-65
2021/11/28 03:41:23;;;;;;;19.30;8.43;;;3.00;99.90;;;;;;4990311;28;20027;-64
2021/11/28 03:43:52;;;;;;;15.30;8.23;;;3.00;99.90;;;;;;4992247;28;20496;-65
2021/11/28 03:46:18;;;;;;;14.70;8.10;;;3.00;99.90;;;;;;4987006;28;20042;-65
2021/11/28 03:48:44;;;;;;;17.20;7.90;;;3.00;99.90;;;;;;4991346;28;20548;-64
2021/11/28 03:51:10;;;;;;;20.55;8.65;;;2.90;99.90;;;;;;4990853;28;20044;-65
2021/11/28 03:53:36;;;;;;;19.48;7.65;;;2.90;99.90;;;;;;4989920;28;20022;-68
2021/11/28 03:56:05;;;;;;;15.93;8.27;;;2.90;99.90;;;;;;4986319;28;20072;-63
2021/11/28 03:58:31;;;;;;;14.40;7.68;;;2.80;99.90;;;;;;4985477;28;20033;-65
2021/11/28 04:00:58;;;;;;;15.30;7.40;;;2.80;99.90;;;;;;4991044;28;20034;-65
2021/11/28 04:03:24;;;;;;;15.77;8.32;;;2.80;99.90;;;;;;4991024;28;20062;-64
2021/11/28 04:05:50;;;;;;;17.75;8.07;;;2.80;99.90;;;;;;4991140;28;20068;-65
2021/11/28 04:08:15;;;;;;;18.23;8.68;;;2.80;99.90;;;;;;4990842;28;20420;-65
2021/11/28 04:10:41;;;;;;;18.05;7.78;;;2.80;99.90;;;;;;4991254;28;20023;-65
2021/11/28 04:13:08;;;;;;;14.55;7.13;;;2.80;99.90;;;;;;4991022;28;20508;-66
2021/11/28 04:15:33;;;;;;;19.05;7.75;;;2.80;99.90;;;;;;4991171;28;20105;-66
2021/11/28 04:17:59;;;;;;;15.35;8.25;;;2.80;99.90;;;;;;4989759;28;20136;-66
2021/11/28 04:20:25;;;;;;;16.73;7.25;;;2.80;99.90;;;;;;4991229;28;20029;-64
2021/11/28 04:22:50;;;;;;;15.15;8.27;;;2.70;99.90;;;;;;4989962;28;20038;-66
2021/11/28 04:25:16;;;;;;;19.20;7.55;;;2.80;99.90;;;;;;4991258;28;20030;-66
2021/11/28 04:27:42;;;;;;;18.45;7.80;;;2.80;99.90;;;;;;4991008;28;20113;-66
2021/11/28 04:30:10;;;;;;;15.68;7.45;;;2.80;99.90;;;;;;4990694;28;21315;-65
2021/11/28 04:32:35;;;;;;;16.35;7.10;;;2.80;99.90;;;;;;4989956;28;20060;-66
2021/11/28 04:35:01;;;;;;;17.75;8.23;;;2.90;99.90;;;;;;4990638;28;20062;-65
2021/11/28 04:37:27;;;;;;;13.15;6.43;;;2.90;99.90;;;;;;4990584;28;20025;-65
2021/11/28 04:39:53;;;;;;;21.95;8.25;;;2.90;99.90;;;;;;4990017;28;20341;-66
2021/11/28 04:42:19;;;;;;;15.10;7.13;;;2.90;99.90;;;;;;4990488;28;20511;-66
2021/11/28 04:44:44;;;;;;;16.02;8.02;;;2.90;99.90;;;;;;4990472;28;20117;-64
2021/11/28 04:47:10;;;;;;;14.90;8.30;;;2.80;99.90;;;;;;4990843;28;20114;-66
2021/11/28 04:49:35;;;;;;;19.98;8.38;;;2.80;99.90;;;;;;4990303;28;20027;-66
2021/11/28 04:52:01;;;;;;;14.68;8.07;;;2.80;99.90;;;;;;4990553;28;20516;-65
2021/11/28 04:54:27;;;;;;;18.67;8.65;;;2.70;99.90;;;;;;4989674;28;20418;-65
2021/11/28 04:56:52;;;;;;;15.25;8.02;;;2.70;99.90;;;;;;4990441;28;20038;-64
2021/11/28 04:59:18;;;;;;;13.32;7.93;;;2.60;99.90;;;;;;4990252;28;20432;-66
2021/11/28 05:01:44;;;;;;;15.63;7.80;;;2.60;99.90;;;;;;4988883;28;20305;-67
2021/11/28 05:04:10;;;;;;;18.33;7.78;;;2.60;99.90;;;;;;4988632;28;20672;-66
2021/11/28 05:06:37;;;;;;;16.25;8.07;;;2.60;99.90;;;;;;4990134;28;20038;-66
2021/11/28 05:09:03;;;;;;;16.50;8.00;;;2.60;99.90;;;;;;4989701;28;20030;-65
2021/11/28 05:11:28;;;;;;;14.20;7.50;;;2.60;99.90;;;;;;4990062;28;20407;-64
2021/11/28 05:13:54;;;;;;;15.82;7.93;;;2.70;99.90;;;;;;4989699;28;20350;-65
2021/11/28 05:16:20;;;;;;;18.08;9.07;;;2.70;99.90;;;;;;4990535;28;20484;-66
2021/11/28 05:18:45;;;;;;;17.25;8.20;;;2.70;99.90;;;;;;4990231;28;20038;-65
2021/11/28 05:21:11;;;;;;;14.73;6.97;;;2.70;99.90;;;;;;4989395;28;20044;-65
2021/11/28 05:23:36;;;;;;;22.48;7.55;;;2.70;99.90;;;;;;4985793;28;20396;-67
2021/11/28 05:26:02;;;;;;;13.30;7.30;;;2.70;99.90;;;;;;4989186;28;20036;-65
2021/11/28 05:28:28;;;;;;;21.08;8.30;;;2.70;99.90;;;;;;4989620;28;20480;-65
2021/11/28 05:30:53;;;;;;;15.88;8.07;;;2.70;99.90;;;;;;4988111;28;20318;-65
2021/11/28 05:33:19;;;;;;;17.60;8.00;;;2.70;99.90;;;;;;4993940;28;20175;-65
2021/11/28 05:35:45;;;;;;;17.88;7.78;;;2.80;99.90;;;;;;4991441;28;20036;-65
2021/11/28 05:38:10;;;;;;;15.07;7.88;;;2.80;99.90;;;;;;4991179;28;20395;-65
2021/11/28 05:40:36;;;;;;;14.32;8.40;;;2.80;99.90;;;;;;4991183;28;20513;-64
2021/11/28 05:43:01;;;;;;;15.25;7.63;;;2.80;99.90;;;;;;4990756;28;20484;-65
2021/11/28 05:45:27;;;;;;;14.35;7.90;;;2.90;99.90;;;;;;4994428;28;20038;-66
2021/11/28 05:47:53;;;;;;;15.65;7.60;;;2.80;99.90;;;;;;4995628;28;20038;-65
2021/11/28 05:50:22;;;;;;;14.25;7.35;;;2.70;99.90;;;;;;4994704;28;20035;-65
2021/11/28 05:52:48;;;;;;;15.23;7.60;;;2.80;99.90;;;;;;4994636;28;20014;-65
2021/11/28 05:55:14;;;;;;;21.95;8.13;;;2.80;99.90;;;;;;4994836;28;20037;-66
2021/11/28 05:57:40;;;;;;;15.40;8.02;;;2.80;99.90;;;;;;4995300;28;20019;-66
2021/11/28 06:00:09;;;;;;;19.55;7.65;;;2.80;99.90;;;;;;4994976;28;20035;-66
2021/11/28 06:02:36;;;;;;;20.00;7.72;;;2.80;99.90;;;;;;4993468;28;20045;-65
2021/11/28 06:05:03;;;;;;;16.75;7.82;;;2.70;99.90;;;;;;4989503;28;20379;-65
2021/11/28 06:07:29;;;;;;;15.50;7.75;;;2.70;99.90;;;;;;4994352;28;20022;-65
2021/11/28 06:09:55;;;;;;;18.40;7.93;;;2.80;99.90;;;;;;4994326;28;20385;-64
2021/11/28 06:12:21;;;;;;;17.77;8.38;;;2.80;99.90;;;;;;4993995;28;20018;-66
2021/11/28 06:14:47;;;;;;;17.70;8.10;;;2.80;99.90;;;;;;4994449;28;20037;-65
2021/11/28 06:17:12;;;;;;;16.80;7.95;;;2.80;99.90;;;;;;4994998;28;20042;-65
2021/11/28 06:19:38;;;;;;;17.50;7.97;;;2.80;99.90;;;;;;4994767;28;20372;-64
2021/11/28 06:22:06;;;;;;;18.25;8.48;;;2.80;99.90;;;;;;4994306;28;20026;-65
2021/11/28 06:24:32;;;;;;;16.15;8.20;;;2.80;99.90;;;;;;4994542;28;20105;-65
2021/11/28 06:26:57;;;;;;;19.48;8.95;;;2.90;99.90;;;;;;4994773;28;20110;-64
2021/11/28 06:29:23;;;;;;;14.20;7.47;;;3.00;99.90;;;;;;4993605;28;20042;-65
2021/11/28 06:31:49;;;;;;;12.30;7.10;;;3.00;99.90;;;;;;4994293;28;20034;-67
2021/11/28 06:34:14;;;;;;;16.48;7.95;;;3.00;99.90;;;;;;4994298;28;20050;-65
2021/11/28 06:36:40;;;;;;;12.82;7.95;;;2.90;99.90;;;;;;4994821;28;20566;-66
2021/11/28 06:39:06;;;;;;;19.77;7.80;;;2.90;99.90;;;;;;4994108;28;20038;-66
2021/11/28 06:41:31;;;;;;;16.10;7.50;;;2.90;99.90;;;;;;4993677;28;20030;-65
2021/11/28 06:43:57;;;;;;;21.40;9.10;;;2.90;99.90;;;;;;4994092;28;20035;-64
2021/11/28 06:46:23;;;;;;;14.45;7.63;;;2.90;99.90;;;;;;4987957;28;20456;-66
2021/11/28 06:48:48;;;;;;;18.15;7.70;;;2.90;99.90;;;;;;4994263;28;20080;-63
2021/11/28 06:51:15;;;;;;;13.90;7.45;;;2.90;99.90;;;;;;4992989;28;20022;-65
2021/11/28 06:53:40;;;;;;;17.65;7.85;;;3.00;99.90;;;;;;4993824;28;20078;-65
2021/11/28 06:56:06;;;;;;;14.35;7.60;;;3.00;99.90;;;;;;4993256;28;20446;-67
2021/11/28 06:58:34;;;;;;;12.90;7.25;;;3.00;99.90;;;;;;4993859;28;20449;-66
2021/11/28 07:00:59;;;;;;;20.35;8.38;;;3.10;99.90;;;;;;4992674;28;20061;-66
2021/11/28 07:03:25;;;;;;;21.27;8.45;;;3.10;99.90;;;;;;4991496;28;20061;-65
2021/11/28 07:05:51;;;;;;;18.85;7.70;;;3.00;99.90;;;;;;4994044;28;20026;-65
2021/11/28 07:08:16;;;;;;;18.83;8.50;;;3.00;99.90;;;;;;4992603;28;20050;-64
2021/11/28 07:10:42;;;;;;;14.80;7.00;;;3.00;99.90;;;;;;4993580;28;20022;-66
2021/11/28 07:13:09;;;;;;;10.60;7.07;;;3.00;99.90;;;;;;4993670;28;20042;-66
2021/11/28 07:15:36;;;;;;;13.80;7.70;;;3.00;99.90;;;;;;4993395;28;20026;-65
2021/11/28 07:18:02;;;;;;;13.85;7.72;;;3.10;99.90;;;;;;4993390;28;20035;-65
2021/11/28 07:20:27;;;;;;;13.20;7.57;;;3.10;99.90;;;;;;4993559;28;20027;-63
2021/11/28 07:22:53;;;;;;;14.95;7.93;;;3.10;99.90;;;;;;4992526;28;20034;-64
2021/11/28 07:25:19;;;;;;;20.08;8.02;;;3.10;99.90;;;;;;4993665;28;20058;-65
2021/11/28 07:27:44;;;;;;;18.38;8.50;;;3.10;99.90;;;;;;4993527;28;20034;-66
2021/11/28 07:30:10;;;;;;;12.95;7.32;;;3.10;99.90;;;;;;4993480;28;20038;-65
2021/11/28 07:32:37;;;;;;;14.05;6.93;;;3.10;99.90;;;;;;4996590;28;20384;-65
2021/11/28 07:35:03;;;;;;;16.77;7.55;;;3.10;99.90;;;;;;4994520;28;20034;-64
2021/11/28 07:37:30;;;;;;;20.33;7.93;;;3.00;99.90;;;;;;4993257;28;20395;-65
2021/11/28 07:39:56;;;;;;;17.65;8.35;;;3.10;99.90;;;;;;4994016;28;20024;-67
2021/11/28 07:42:22;;;;;;;16.27;8.80;;;3.10;99.90;;;;;;4995794;28;20026;-65
2021/11/28 07:44:49;;;;;;;19.83;9.07;;;3.10;99.90;;;;;;4995890;28;20071;-66
2021/11/28 07:47:15;;;;;;;14.77;8.38;;;3.10;99.90;;;;;;4992784;28;20022;-63
2021/11/28 07:49:41;;;;;;;14.52;8.18;;;3.10;99.90;;;;;;4993011;28;20118;-64
2021/11/28 07:52:07;;;;;;;14.65;7.53;;;3.20;99.90;;;;;;4989961;28;20101;-65
2021/11/28 07:54:33;;;;;;;15.80;8.70;;;3.20;99.90;;;;;;4993473;28;20053;-66
2021/11/28 07:56:59;;;;;;;17.75;8.13;;;3.20;99.90;;;;;;4993075;28;20034;-66
2021/11/28 07:59:24;;;;;;;14.02;7.97;;;3.30;99.90;;;;;;4993395;28;20034;-65
2021/11/28 08:01:50;;;;;;;17.23;7.68;;;3.40;99.90;;;;;;4990701;28;20039;-66
2021/11/28 08:04:15;;;;;;;18.95;8.10;;;3.50;99.90;;;;;;4991547;28;20121;-65
2021/11/28 08:06:41;;;;;;;16.55;7.70;;;3.60;99.90;;;;;;4991970;28;20101;-65
2021/11/28 08:09:06;;;;;;;13.73;8.02;;;3.60;99.90;;;;;;4991859;28;20419;-65
2021/11/28 08:11:32;;;;;;;13.63;8.00;;;3.60;99.90;;;;;;4991367;28;20023;-65
2021/11/28 08:13:57;;;;;;;16.45;8.05;;;3.60;99.90;;;;;;4992831;28;20081;-66
2021/11/28 08:16:23;;;;;;;11.80;7.15;;;3.60;99.90;;;;;;4992458;28;20022;-65
2021/11/28 08:18:49;;;;;;;21.23;8.63;;;3.60;99.90;;;;;;4992196;28;20030;-66
2021/11/28 08:21:14;;;;;;;13.75;7.68;;;3.60;99.90;;;;;;4991037;28;20042;-65
2021/11/28 08:23:42;;;;;;;17.48;8.63;;;3.60;99.90;;;;;;4992559;28;20164;-65
2021/11/28 08:26:08;;;;;;;17.13;7.72;;;3.60;99.90;;;;;;4991692;28;20092;-65
2021/11/28 08:28:34;;;;;;;16.83;8.50;;;3.70;99.90;;;;;;4994891;28;20369;-64
2021/11/28 08:31:00;;;;;;;17.08;7.60;;;3.70;99.90;;;;;;4992278;28;20045;-65
2021/11/28 08:33:25;;;;;;;18.63;8.10;;;3.70;99.90;;;;;;4992679;28;20042;-65
2021/11/28 08:35:51;;;;;;;14.80;8.50;;;3.70;99.90;;;;;;4992694;28;20484;-65
2021/11/28 08:38:17;;;;;;;15.65;8.77;;;3.80;99.90;;;;;;4991783;28;20030;-66
2021/11/28 08:40:42;;;;;;;16.90;8.50;;;3.80;99.90;;;;;;4987355;28;20022;-66
2021/11/28 08:43:09;;;;;;;16.00;8.77;;;3.80;99.90;;;;;;4992500;28;20034;-65
2021/11/28 08:45:35;;;;;;;15.55;8.30;;;3.80;99.90;;;;;;4993692;28;20068;-65
2021/11/28 08:48:01;;;;;;;17.02;8.85;;;3.80;99.90;;;;;;4992160;28;20037;-66
2021/11/28 08:50:28;;;;;;;16.65;8.80;;;3.80;99.90;;;;;;4992127;28;20033;-68
2021/11/28 08:52:54;;;;;;;19.30;8.57;;;3.80;99.90;;;;;;4992277;28;20029;-65
2021/11/28 08:55:20;;;;;;;19.00;8.18;;;3.90;99.90;;;;;;4992935;28;20030;-65
2021/11/28 08:57:46;;;;;;;14.43;8.15;;;3.90;99.90;;;;;;4991690;28;20030;-65
2021/11/28 09:00:13;;;;;;;13.98;7.80;;;3.90;99.90;;;;;;4990946;28;20030;-65
2021/11/28 09:02:39;;;;;;;16.52;8.73;;;3.90;99.90;;;;;;4990549;28;20101;-67
2021/11/28 09:05:06;;;;;;;18.15;9.05;;;4.00;99.90;;;;;;4991729;28;20503;-66
2021/11/28 09:07:32;;;;;;;20.10;9.25;;;4.10;99.90;;;;;;4994246;28;20034;-65
2021/11/28 09:09:57;;;;;;;19.88;8.82;;;4.20;99.90;;;;;;4993923;28;20026;-67
2021/11/28 09:12:23;;;;;;;15.52;8.30;;;4.20;99.90;;;;;;4992212;28;20027;-65
2021/11/28 09:14:49;;;;;;;18.35;8.18;;;4.30;99.90;;;;;;5014740;22;20042;-58
2021/11/28 09:17:16;;;;;;;17.50;8.30;;;4.30;99.90;;;;;;4990334;28;20023;-57
2021/11/28 09:22:09;;;;;;;15.15;8.60;;;4.50;99.90;;;;;;4989747;28;20038;-56
2021/11/28 09:24:38;;;;;;;19.13;8.50;;;4.40;99.90;;;;;;4993731;28;20101;-57
2021/11/28 09:27:13;;;;;;;14.93;8.20;;;4.50;99.90;;;;;;4991480;28;20069;-57
2021/11/28 09:29:45;;;;;;;18.90;8.32;;;4.60;99.90;;;;;;4990728;28;20042;-58
2021/11/28 09:32:13;;;;;;;15.60;8.32;;;4.60;99.90;;;;;;4990883;28;20086;-57
2021/11/28 09:34:39;;;;;;;13.00;7.75;;;4.70;99.90;;;;;;4994886;28;20057;-56
2021/11/28 09:37:08;;;;;;;17.15;9.00;;;4.70;99.90;;;;;;4987889;28;20033;-58
2021/11/28 09:39:35;;;;;;;16.23;8.80;;;4.70;99.90;;;;;;4987942;28;20037;-58
2021/11/28 09:42:08;;;;;;;18.58;9.50;;;4.80;99.90;;;;;;4989269;28;20042;-56
2021/11/28 09:44:36;;;;;;;18.77;8.73;;;4.80;99.90;;;;;;4989585;28;20496;-58
2021/11/28 09:47:05;;;;;;;17.95;10.20;;;4.80;99.90;;;;;;4989219;28;20046;-57
2021/11/28 09:49:31;;;;;;;18.27;9.70;;;4.80;99.90;;;;;;4988067;28;20416;-54
2021/11/28 09:52:05;;;;;;;21.25;10.48;;;4.80;99.90;;;;;;4990053;28;20029;-57
2021/11/28 09:54:35;;;;;;;22.48;10.02;;;4.90;99.90;;;;;;4989755;28;20451;-55
2021/11/28 09:57:01;;;;;;;27.67;10.90;;;4.90;99.90;;;;;;4989100;28;20480;-57
2021/11/28 09:59:27;;;;;;;16.05;9.13;;;5.00;99.90;;;;;;4987271;28;20042;-56
2021/11/28 10:01:54;;;;;;;22.13;9.70;;;5.00;99.90;;;;;;4989276;28;20387;-53
2021/11/28 10:04:20;;;;;;;20.63;9.65;;;4.90;99.90;;;;;;4987807;28;20034;-53
2021/11/28 10:06:47;;;;;;;20.45;9.73;;;4.80;99.90;;;;;;4988197;28;20108;-54
2021/11/28 10:09:13;;;;;;;15.40;8.90;;;4.70;99.90;;;;;;4989990;28;20026;-55
2021/11/28 10:11:42;;;;;;;22.35;9.85;;;4.60;99.90;;;;;;4983528;28;20139;-53
2021/11/28 10:14:11;;;;;;;15.90;9.30;;;4.60;99.90;;;;;;4988927;28;20046;-53
2021/11/28 10:16:37;;;;;;;18.48;9.73;;;4.60;99.90;;;;;;4987221;28;20089;-54
2021/11/28 10:19:03;;;;;;;15.63;8.95;;;4.60;99.90;;;;;;4971436;28;20412;-56
2021/11/28 10:21:32;;;;;;;19.95;8.68;;;4.60;99.90;;;;;;4993556;28;20037;-57
2021/11/28 10:24:15;;;;;;;19.38;9.77;;;4.60;99.90;;;;;;4989301;28;20050;-58
2021/11/28 10:26:57;;;;;;;21.35;10.25;;;4.50;99.90;;;;;;4987067;28;20066;-57
2021/11/28 10:29:28;;;;;;;20.10;9.63;;;4.50;99.90;;;;;;4984580;28;20034;-57
2021/11/28 10:31:56;;;;;;;22.15;10.50;;;4.50;99.90;;;;;;4990639;28;20022;-57
2021/11/28 10:34:25;;;;;;;18.52;9.40;;;4.60;99.90;;;;;;4993045;28;20496;-57
2021/11/28 10:37:23;;;;;;;20.00;9.27;;;4.60;99.90;;;;;;4988073;28;20018;-57
2021/11/28 10:39:55;;;;;;;19.55;9.18;;;4.60;99.90;;;;;;4992874;28;20045;-55
2021/11/28 10:42:25;;;;;;;21.60;9.43;;;4.60;99.90;;;;;;4988685;28;20038;-56
2021/11/28 10:45:06;;;;;;;20.70;10.63;;;4.70;99.90;;;;;;4989703;28;20030;-56
2021/11/28 10:47:53;;;;;;;20.40;9.88;;;4.70;99.90;;;;;;4991510;28;20411;-57
2021/11/28 10:50:27;;;;;;;21.35;10.82;;;4.60;99.90;;;;;;4993230;28;20375;-57
2021/11/28 10:53:21;;;;;;;16.90;10.15;;;4.70;99.90;;;;;;4996670;28;20046;-54
2021/11/28 10:55:49;;;;;;;22.65;10.30;;;4.70;99.90;;;;;;4992638;28;20034;-56
2021/11/28 10:58:18;;;;;;;17.48;10.10;;;4.80;99.90;;;;;;4988157;28;20535;-56
2021/11/28 11:00:49;;;;;;;22.50;10.77;;;4.80;99.90;;;;;;4991221;28;20042;-56
2021/11/28 11:03:19;;;;;;;28.90;11.55;;;4.90;99.90;;;;;;4989186;28;20133;-56
2021/11/28 11:05:50;;;;;;;22.10;11.77;;;5.00;99.90;;;;;;4991391;28;20034;-57
2021/11/28 11:08:17;;;;;;;16.38;10.65;;;5.00;99.90;;;;;;4990133;28;20102;-53
2021/11/28 11:10:45;;;;;;;21.15;10.52;;;5.00;99.90;;;;;;4995201;28;20061;-58
2021/11/28 11:13:18;;;;;;;16.38;9.95;;;5.00;99.90;;;;;;4991024;28;20030;-53
2021/11/28 11:15:50;;;;;;;26.52;11.20;;;4.90;99.90;;;;;;4992916;28;20026;-56
2021/11/28 11:18:21;;;;;;;20.80;11.23;;;4.90;99.90;;;;;;4985355;28;20027;-58
2021/11/28 11:20:51;;;;;;;20.02;10.57;;;4.90;99.90;;;;;;4986471;28;20041;-57
2021/11/28 11:23:38;;;;;;;22.38;10.93;;;4.90;99.90;;;;;;4983659;28;20480;-57
2021/11/28 11:26:33;;;;;;;21.50;10.68;;;4.90;99.90;;;;;;4986706;28;20046;-56
2021/11/28 11:29:02;;;;;;;24.75;12.18;;;4.90;99.90;;;;;;4986592;28;20030;-56
2021/11/28 11:31:28;;;;;;;23.83;12.93;;;4.90;99.90;;;;;;4990652;28;20034;-57
2021/11/28 11:33:54;;;;;;;23.48;11.57;;;4.90;99.90;;;;;;4982341;28;20121;-56
2021/11/28 11:36:20;;;;;;;25.95;12.60;;;4.90;99.90;;;;;;4987550;28;20038;-56
2021/11/28 11:38:47;;;;;;;19.20;11.32;;;4.90;99.90;;;;;;4989393;28;20026;-56
2021/11/28 11:41:13;;;;;;;23.33;11.77;;;5.00;99.90;;;;;;4988930;28;20030;-58
2021/11/28 11:43:40;;;;;;;19.85;11.38;;;4.90;99.90;;;;;;4990097;28;20348;-58
2021/11/28 11:46:08;;;;;;;20.70;11.80;;;5.00;99.90;;;;;;4988679;28;20037;-58
2021/11/28 11:48:35;;;;;;;21.85;11.18;;;5.00;99.90;;;;;;4968393;28;20487;-58
2021/11/28 11:51:02;;;;;;;23.77;13.55;;;5.10;99.90;;;;;;4989133;28;20545;-58
2021/11/28 11:53:27;;;;;;;27.73;14.48;;;5.10;99.90;;;;;;4981787;28;20022;-59
2021/11/28 11:55:53;;;;;;;28.63;12.82;;;5.10;99.90;;;;;;4971282;28;20438;-57
2021/11/28 11:58:39;;;;;;;26.33;13.50;;;5.10;99.90;;;;;;4986164;28;20050;-58
2021/11/28 12:01:18;;;;;;;27.73;13.55;;;5.10;99.90;;;;;;4988068;28;20754;-57
2021/11/28 12:03:50;;;;;;;23.98;12.60;;;5.10;99.90;;;;;;4983212;28;20033;-58
2021/11/28 12:06:15;;;;;;;25.45;12.55;;;5.10;99.90;;;;;;4989547;28;20088;-58
2021/11/28 12:08:52;;;;;;;31.92;14.05;;;5.10;99.90;;;;;;4973001;28;20400;-57
2021/11/28 12:11:22;;;;;;;35.65;15.27;;;5.00;99.90;;;;;;4984982;28;20029;-55
2021/11/28 12:13:53;;;;;;;27.05;13.60;;;5.00;99.90;;;;;;4988280;28;20094;-55
2021/11/28 12:16:21;;;;;;;26.13;14.25;;;5.10;99.90;;;;;;4985353;28;20019;-53
2021/11/28 12:18:50;;;;;;;25.70;13.43;;;5.20;99.90;;;;;;4990330;28;20022;-55
2021/11/28 12:21:33;;;;;;;30.63;13.57;;;5.30;99.90;;;;;;4989384;28;20678;-57
2021/11/28 12:24:10;;;;;;;29.58;14.95;;;5.20;99.90;;;;;;4983370;28;20030;-56
2021/11/28 12:26:41;;;;;;;30.20;13.93;;;5.10;99.90;;;;;;4991352;28;20109;-57
2021/11/28 12:29:15;;;;;;;32.42;15.57;;;5.20;99.90;;;;;;4987123;28;20030;-57
2021/11/28 12:31:43;;;;;;;28.90;14.70;;;5.30;99.90;;;;;;4990198;28;20502;-55
2021/11/28 12:34:11;;;;;;;35.13;15.73;;;5.30;99.90;;;;;;4986504;28;20042;-57
2021/11/28 12:36:51;;;;;;;33.03;17.15;;;5.30;99.90;;;;;;4987298;28;20048;-55
2021/11/28 12:39:18;;;;;;;35.25;18.45;;;5.30;99.90;;;;;;4989162;28;20026;-57
2021/11/28 12:41:55;;;;;;;34.63;17.58;;;5.30;99.90;;;;;;4987872;28;20504;-53
2021/11/28 12:44:35;;;;;;;38.33;18.70;;;5.20;99.90;;;;;;4988184;28;20034;-53
2021/11/28 12:47:09;;;;;;;37.10;20.00;;;5.20;99.90;;;;;;4988725;28;20121;-53
2021/11/28 12:49:43;;;;;;;;;;;5.30;99.90;;;;;;4982400;28;20374;-57